Flight ASX205

  • Submitted By: Lukasz Przybylak
  • Departure Airport: Katowice Pyrzowice (EPKT)
  • Arrival Airport: Gdansk im. Lecha Walesy (EPGD)
  • Aircraft: KING AIR 350 (SP-DBL)
  • Flight Time: 01.45.08
  • Date Submitted: 09/12/2017
  • Status: Accepted
Flight Details
Gross Revenue:
(8 load / € 80.00 per unit
€ 640.00
Fuel Cost:
(304.814 fuel used @ 0.45 / unit)
€ 137.17

Additional Log Information:

View Log

[20:56] - CARENADO B350i King Air N24YG
[20:56] - Flight ASX205 is ready to depart EPKT with a final destination of EPGD.
[20:56] - Instrument Lights ON
[20:56] - Boarding
[20:56] - Engine 1 Started
[20:57] - Engine 2 Started
[20:57] - Navigation Lights ON 6AGL
[20:57] - Beacon Light ON 6AGL
[21:04] - Taxi Lights ON 6AGL
[21:04] - Recognition Lights ON 6AGL
[21:04] - Wing Lights ON 6AGL
[21:06] - Pushing Back from the gate
[21:06] - Parking Brake Released
[21:08] - Taxiing to Runway
[21:12] - Parking Brake Applied
[21:12] - Landing Lights ON 6AGL
[21:12] - Taxi Lights OFF 6AGL
[21:12] - Strobe Lights ON 6AGL
[21:26] - Parking Brake Released
[21:26] - Flaps to position 1
[21:27] - Taking Off with 8 passengers on board
[21:27] - Take off at 126kts, with a pitch of 5deg and 2231lbs of fuel on board
[21:27] - Wind Heading 278 | Wind Speed 11kts | Temperature 12 deg C
[21:27] - METAR Departure: EPKT 121900Z VRB02KT 9999 -RA FEW042 12/11 Q1009

[21:27] - Climbing to TOC
[21:27] - Flaps to position 0 at 1594ft and 155kts
[21:28] - Gear up at 886AGL
[21:28] - AutoPilot Engaged at 1316AGL
[21:36] - Landing Lights OFF 8449AGL
[21:43] - TOC reached
[21:43] - Cruise started
[22:04] - NAV1 - 110.30
[22:21] - TOD reached
[22:21] - Descending to destination
[22:25] - Landing Lights ON 9380AGL
[22:27] - Landing Shortly
[22:32] - Flaps to position 1 at 2395ft and 178kts
[22:32] - Gear down at 2283AGL
[22:33] - Flaps to position 2 at 1752ft and 132kts
[22:34] - AutoPilot Disengaged at 725AGL
[22:36] - Landed at -329fpm. With 1639lbs of fuel onboard and a pitch angle of 1deg.
[22:36] - Wind Heading 233 | Wind Speed 7kts | Temperature 13 deg C
[22:36] - METAR Arrival: EPGD 122000Z 24006KT CAVOK 14/10 Q1004

[22:36] - Taxiing to Gate
[22:37] - Taxi Lights ON 3AGL
[22:37] - Landing Lights OFF 3AGL
[22:37] - Strobe Lights OFF 3AGL
[22:39] - Parking Brake Applied
[22:39] - Arrived safely at EPGD. We hope you enjoyed your flight!
[22:40] - Taxi Lights OFF 3AGL
[22:40] - Wing Lights OFF 3AGL
[22:40] - Recognition Lights OFF 3AGL
[22:40] - Engine 1 Stopped
[22:40] - Engine 2 Stopped
[22:40] - Flaps to position 1
[22:40] - Flaps to position 0
[22:40] - Navigation Lights OFF 3AGL
[22:40] - Beacon Lights OFF 3AGL
[22:41] - CARENADO B350i King Air N24YG
[22:41] - MaxSim Rate: 1x
[22:41] - SiouxAcars ver: 1.0.1.2

Route Map